sensor_id;sensor_type;location;lat;lon;timestamp;pressure;altitude;pressure_sealevel;temperature;humidity
15750;BME280;7976;52.526;13.326;2022-10-31T00:00:58;101386.28;;;15.25;93.90
15750;BME280;7976;52.526;13.326;2022-10-31T00:03:24;101388.06;;;15.25;94.29
15750;BME280;7976;52.526;13.326;2022-10-31T00:05:53;101391.63;;;15.24;93.95
15750;BME280;7976;52.526;13.326;2022-10-31T00:08:20;101394.28;;;15.24;94.00
15750;BME280;7976;52.526;13.326;2022-10-31T00:10:47;101394.28;;;15.24;94.23
15750;BME280;7976;52.526;13.326;2022-10-31T00:13:14;101396.84;;;15.25;93.96
15750;BME280;7976;52.526;13.326;2022-10-31T00:15:41;101404.75;;;15.25;94.42
15750;BME280;7976;52.526;13.326;2022-10-31T00:18:09;101405.66;;;15.24;93.80
15750;BME280;7976;52.526;13.326;2022-10-31T00:20:38;101401.41;;;15.22;94.18
15750;BME280;7976;52.526;13.326;2022-10-31T00:23:07;101403.25;;;15.20;93.96
15750;BME280;7976;52.526;13.326;2022-10-31T00:25:38;101408.59;;;15.18;94.05
15750;BME280;7976;52.526;13.326;2022-10-31T00:28:07;101403.31;;;15.18;94.44
15750;BME280;7976;52.526;13.326;2022-10-31T00:30:35;101409.44;;;15.19;94.02
15750;BME280;7976;52.526;13.326;2022-10-31T00:33:03;101416.56;;;15.17;94.48
15750;BME280;7976;52.526;13.326;2022-10-31T00:35:30;101422.00;;;15.14;94.47
15750;BME280;7976;52.526;13.326;2022-10-31T00:37:57;101414.19;;;15.10;94.45
15750;BME280;7976;52.526;13.326;2022-10-31T00:40:25;101410.78;;;15.08;94.57
15750;BME280;7976;52.526;13.326;2022-10-31T00:42:53;101413.44;;;15.08;94.42
15750;BME280;7976;52.526;13.326;2022-10-31T00:45:19;101418.75;;;15.07;94.30
15750;BME280;7976;52.526;13.326;2022-10-31T00:47:47;101419.75;;;15.04;94.54
15750;BME280;7976;52.526;13.326;2022-10-31T00:50:14;101421.53;;;15.04;94.74
15750;BME280;7976;52.526;13.326;2022-10-31T00:52:41;101419.88;;;15.01;94.52
15750;BME280;7976;52.526;13.326;2022-10-31T00:55:08;101426.06;;;15.00;94.57
15750;BME280;7976;52.526;13.326;2022-10-31T00:57:36;101433.22;;;14.98;94.80
15750;BME280;7976;52.526;13.326;2022-10-31T01:00:05;101429.78;;;14.96;94.64
15750;BME280;7976;52.526;13.326;2022-10-31T01:02:32;101433.31;;;14.95;94.46
15750;BME280;7976;52.526;13.326;2022-10-31T01:05:00;101428.19;;;14.92;94.76
15750;BME280;7976;52.526;13.326;2022-10-31T01:07:26;101437.94;;;14.90;94.51
15750;BME280;7976;52.526;13.326;2022-10-31T01:09:53;101435.44;;;14.87;94.72
15750;BME280;7976;52.526;13.326;2022-10-31T01:12:20;101432.88;;;14.86;94.89
15750;BME280;7976;52.526;13.326;2022-10-31T01:14:49;101432.81;;;14.87;94.80
15750;BME280;7976;52.526;13.326;2022-10-31T01:17:17;101435.44;;;14.87;94.50
15750;BME280;7976;52.526;13.326;2022-10-31T01:19:46;101441.59;;;14.88;94.62
15750;BME280;7976;52.526;13.326;2022-10-31T01:22:12;101438.16;;;14.86;94.81
15750;BME280;7976;52.526;13.326;2022-10-31T01:24:39;101437.28;;;14.85;94.74
15750;BME280;7976;52.526;13.326;2022-10-31T01:27:06;101430.31;;;14.84;94.34
15750;BME280;7976;52.526;13.326;2022-10-31T01:29:33;101433.03;;;14.83;94.17
15750;BME280;7976;52.526;13.326;2022-10-31T01:32:01;101431.25;;;14.83;94.45
15750;BME280;7976;52.526;13.326;2022-10-31T01:34:28;101431.19;;;14.85;94.23
15750;BME280;7976;52.526;13.326;2022-10-31T01:36:55;101435.59;;;14.84;94.50
15750;BME280;7976;52.526;13.326;2022-10-31T01:39:22;101435.50;;;14.86;94.26
15750;BME280;7976;52.526;13.326;2022-10-31T01:41:52;101440.00;;;14.84;94.19
15750;BME280;7976;52.526;13.326;2022-10-31T01:44:56;101443.50;;;14.84;94.50
15750;BME280;7976;52.526;13.326;2022-10-31T01:47:35;101435.72;;;14.81;94.24
15750;BME280;7976;52.526;13.326;2022-10-31T01:50:12;101433.16;;;14.80;94.10
15750;BME280;7976;52.526;13.326;2022-10-31T01:52:44;101444.59;;;14.79;94.28
15750;BME280;7976;52.526;13.326;2022-10-31T01:55:19;101443.78;;;14.78;93.95
15750;BME280;7976;52.526;13.326;2022-10-31T01:57:52;101451.69;;;14.78;94.24
15750;BME280;7976;52.526;13.326;2022-10-31T02:00:21;101450.00;;;14.76;94.17
15750;BME280;7976;52.526;13.326;2022-10-31T02:02:51;101442.09;;;14.76;94.16
15750;BME280;7976;52.526;13.326;2022-10-31T02:05:25;101447.31;;;14.77;94.12
15750;BME280;7976;52.526;13.326;2022-10-31T02:07:59;101444.81;;;14.74;94.23
15750;BME280;7976;52.526;13.326;2022-10-31T02:10:31;101444.81;;;14.74;94.27
15750;BME280;7976;52.526;13.326;2022-10-31T02:13:04;101447.44;;;14.74;94.45
15750;BME280;7976;52.526;13.326;2022-10-31T02:15:37;101444.81;;;14.74;94.45
15750;BME280;7976;52.526;13.326;2022-10-31T02:18:07;101448.38;;;14.73;93.83
15750;BME280;7976;52.526;13.326;2022-10-31T02:20:45;101448.38;;;14.73;94.17
15750;BME280;7976;52.526;13.326;2022-10-31T02:24:17;101450.09;;;14.74;94.04
15750;BME280;7976;52.526;13.326;2022-10-31T02:27:20;101447.50;;;14.73;94.21
15750;BME280;7976;52.526;13.326;2022-10-31T02:30:11;101442.25;;;14.73;93.97
15750;BME280;7976;52.526;13.326;2022-10-31T02:33:14;101436.19;;;14.71;93.88
15750;BME280;7976;52.526;13.326;2022-10-31T02:35:55;101445.09;;;14.68;94.19
15750;BME280;7976;52.526;13.326;2022-10-31T02:38:35;101440.78;;;14.66;93.79
15750;BME280;7976;52.526;13.326;2022-10-31T02:41:16;101445.31;;;14.62;93.92
15750;BME280;7976;52.526;13.326;2022-10-31T02:44:05;101454.31;;;14.58;94.15
15750;BME280;7976;52.526;13.326;2022-10-31T02:46:44;101449.06;;;14.57;94.01
15750;BME280;7976;52.526;13.326;2022-10-31T02:49:23;101456.13;;;14.56;94.19
15750;BME280;7976;52.526;13.326;2022-10-31T02:51:52;101455.34;;;14.54;94.07
15750;BME280;7976;52.526;13.326;2022-10-31T02:54:23;101458.94;;;14.52;94.43
15750;BME280;7976;52.526;13.326;2022-10-31T02:56:58;101452.84;;;14.51;94.33
15750;BME280;7976;52.526;13.326;2022-10-31T02:59:28;101464.34;;;14.49;94.39
15750;BME280;7976;52.526;13.326;2022-10-31T03:05:31;101468.63;;;14.51;94.47
15750;BME280;7976;52.526;13.326;2022-10-31T03:08:15;101466.06;;;14.50;94.20
15750;BME280;7976;52.526;13.326;2022-10-31T03:10:53;101466.06;;;14.50;94.23
15750;BME280;7976;52.526;13.326;2022-10-31T03:13:32;101472.31;;;14.47;94.19
15750;BME280;7976;52.526;13.326;2022-10-31T03:16:09;101471.50;;;14.45;93.94
15750;BME280;7976;52.526;13.326;2022-10-31T03:18:40;101473.25;;;14.46;94.01
15750;BME280;7976;52.526;13.326;2022-10-31T03:21:14;101469.75;;;14.46;93.92
15750;BME280;7976;52.526;13.326;2022-10-31T03:23:46;101480.34;;;14.44;94.12
15750;BME280;7976;52.526;13.326;2022-10-31T03:26:21;101471.50;;;14.45;94.10
15750;BME280;7976;52.526;13.326;2022-10-31T03:28:53;101480.22;;;14.47;94.20
15750;BME280;7976;52.526;13.326;2022-10-31T03:31:28;101488.84;;;14.51;94.00
15750;BME280;7976;52.526;13.326;2022-10-31T03:33:59;101484.44;;;14.51;94.21
15750;BME280;7976;52.526;13.326;2022-10-31T03:36:33;101501.09;;;14.52;93.88
15750;BME280;7976;52.526;13.326;2022-10-31T03:39:05;101499.31;;;14.52;93.70
15750;BME280;7976;52.526;13.326;2022-10-31T03:41:43;101503.69;;;14.53;93.90
15750;BME280;7976;52.526;13.326;2022-10-31T03:44:17;101501.94;;;14.52;93.34
15750;BME280;7976;52.526;13.326;2022-10-31T03:46:53;101506.34;;;14.52;93.32
15750;BME280;7976;52.526;13.326;2022-10-31T03:49:21;101502.09;;;14.49;92.96
15750;BME280;7976;52.526;13.326;2022-10-31T03:51:57;101502.09;;;14.49;92.92
15750;BME280;7976;52.526;13.326;2022-10-31T03:54:36;101504.78;;;14.48;92.97
15750;BME280;7976;52.526;13.326;2022-10-31T03:57:10;101508.28;;;14.48;93.00
15750;BME280;7976;52.526;13.326;2022-10-31T03:59:46;101505.66;;;14.48;92.99
15750;BME280;7976;52.526;13.326;2022-10-31T04:02:18;101517.03;;;14.49;93.18
15750;BME280;7976;52.526;13.326;2022-10-31T04:04:48;101510.06;;;14.48;92.61
15750;BME280;7976;52.526;13.326;2022-10-31T04:07:19;101516.19;;;14.48;92.94
15750;BME280;7976;52.526;13.326;2022-10-31T04:09:51;101503.06;;;14.47;92.65
15750;BME280;7976;52.526;13.326;2022-10-31T04:12:22;101512.75;;;14.46;92.69
15750;BME280;7976;52.526;13.326;2022-10-31T04:15:01;101509.19;;;14.47;92.37
15750;BME280;7976;52.526;13.326;2022-10-31T04:17:33;101518.84;;;14.47;92.29
15750;BME280;7976;52.526;13.326;2022-10-31T04:20:00;101514.59;;;14.44;92.48
15750;BME280;7976;52.526;13.326;2022-10-31T04:22:29;101521.56;;;14.45;92.31
15750;BME280;7976;52.526;13.326;2022-10-31T04:24:57;101520.66;;;14.46;92.32
15750;BME280;7976;52.526;13.326;2022-10-31T04:27:23;101525.13;;;14.44;92.44
15750;BME280;7976;52.526;13.326;2022-10-31T04:29:51;101526.88;;;14.44;92.38
15750;BME280;7976;52.526;13.326;2022-10-31T04:32:18;101530.50;;;14.41;92.14
15750;BME280;7976;52.526;13.326;2022-10-31T04:34:45;101528.78;;;14.40;91.97
15750;BME280;7976;52.526;13.326;2022-10-31T04:37:12;101523.56;;;14.39;92.15
15750;BME280;7976;52.526;13.326;2022-10-31T04:39:40;101534.19;;;14.37;91.80
15750;BME280;7976;52.526;13.326;2022-10-31T04:42:41;101532.53;;;14.35;92.00
15750;BME280;7976;52.526;13.326;2022-10-31T04:45:09;101536.13;;;14.32;92.15
15750;BME280;7976;52.526;13.326;2022-10-31T04:47:36;101534.44;;;14.31;92.10
15750;BME280;7976;52.526;13.326;2022-10-31T04:50:05;101530.06;;;14.30;92.13
15750;BME280;7976;52.526;13.326;2022-10-31T04:52:39;101525.78;;;14.28;91.88
15750;BME280;7976;52.526;13.326;2022-10-31T04:55:10;101529.38;;;14.25;92.28
15750;BME280;7976;52.526;13.326;2022-10-31T04:57:55;101538.31;;;14.21;92.16
15750;BME280;7976;52.526;13.326;2022-10-31T05:00:24;101537.50;;;14.19;92.05
15750;BME280;7976;52.526;13.326;2022-10-31T05:02:53;101543.72;;;14.18;92.24
15750;BME280;7976;52.526;13.326;2022-10-31T05:05:23;101541.09;;;14.17;92.06
15750;BME280;7976;52.526;13.326;2022-10-31T05:07:51;101532.31;;;14.18;92.02
15750;BME280;7976;52.526;13.326;2022-10-31T05:10:25;101531.44;;;14.17;92.45
15750;BME280;7976;52.526;13.326;2022-10-31T05:12:54;101541.97;;;14.17;92.09
15750;BME280;7976;52.526;13.326;2022-10-31T05:15:39;101543.06;;;14.12;92.43
15750;BME280;7976;52.526;13.326;2022-10-31T05:18:38;101543.19;;;14.09;92.38
15750;BME280;7976;52.526;13.326;2022-10-31T05:21:23;101540.63;;;14.07;92.46
15750;BME280;7976;52.526;13.326;2022-10-31T05:23:53;101545.88;;;14.07;92.57
15750;BME280;7976;52.526;13.326;2022-10-31T05:26:24;101542.34;;;14.08;92.64
15750;BME280;7976;52.526;13.326;2022-10-31T05:28:53;101547.69;;;14.05;92.68
15750;BME280;7976;52.526;13.326;2022-10-31T05:31:19;101547.69;;;14.05;92.55
15750;BME280;7976;52.526;13.326;2022-10-31T05:33:48;101557.41;;;14.05;92.36
15750;BME280;7976;52.526;13.326;2022-10-31T05:36:50;101552.91;;;14.07;92.64
15750;BME280;7976;52.526;13.326;2022-10-31T05:39:21;101550.28;;;14.07;92.73
15750;BME280;7976;52.526;13.326;2022-10-31T05:41:54;101554.59;;;14.09;92.71
15750;BME280;7976;52.526;13.326;2022-10-31T05:44:25;101567.69;;;14.11;92.65
15750;BME280;7976;52.526;13.326;2022-10-31T05:47:27;101553.59;;;14.12;92.83
15750;BME280;7976;52.526;13.326;2022-10-31T05:50:32;101563.22;;;14.13;92.71
15750;BME280;7976;52.526;13.326;2022-10-31T05:53:08;101555.38;;;14.11;92.72
15750;BME280;7976;52.526;13.326;2022-10-31T05:55:37;101563.28;;;14.11;92.95
15750;BME280;7976;52.526;13.326;2022-10-31T05:58:12;101572.06;;;14.10;92.62
15750;BME280;7976;52.526;13.326;2022-10-31T06:00:43;101569.44;;;14.10;93.03
15750;BME280;7976;52.526;13.326;2022-10-31T06:03:11;101572.94;;;14.11;92.64
15750;BME280;7976;52.526;13.326;2022-10-31T06:05:55;101571.31;;;14.08;92.97
15750;BME280;7976;52.526;13.326;2022-10-31T06:08:25;101579.13;;;14.10;93.00
15750;BME280;7976;52.526;13.326;2022-10-31T06:10:54;101576.50;;;14.10;92.94
15750;BME280;7976;52.526;13.326;2022-10-31T06:13:43;101579.97;;;14.10;92.95
15750;BME280;7976;52.526;13.326;2022-10-31T06:16:17;101579.19;;;14.08;93.08
15750;BME280;7976;52.526;13.326;2022-10-31T06:18:45;101582.59;;;14.10;92.97
15750;BME280;7976;52.526;13.326;2022-10-31T06:21:13;101575.56;;;14.11;93.18
15750;BME280;7976;52.526;13.326;2022-10-31T06:23:40;101584.34;;;14.11;92.89
15750;BME280;7976;52.526;13.326;2022-10-31T06:26:24;101583.47;;;14.11;93.11
15750;BME280;7976;52.526;13.326;2022-10-31T06:28:53;101579.06;;;14.11;92.97
15750;BME280;7976;52.526;13.326;2022-10-31T06:31:36;101586.03;;;14.12;92.93
15750;BME280;7976;52.526;13.326;2022-10-31T06:34:03;101591.31;;;14.12;93.03
15750;BME280;7976;52.526;13.326;2022-10-31T06:36:30;101593.88;;;14.14;92.79
15750;BME280;7976;52.526;13.326;2022-10-31T06:38:57;101594.75;;;14.14;93.14
15750;BME280;7976;52.526;13.326;2022-10-31T06:41:26;101591.19;;;14.15;93.08
15750;BME280;7976;52.526;13.326;2022-10-31T06:43:54;101599.09;;;14.15;92.93
15750;BME280;7976;52.526;13.326;2022-10-31T06:46:56;101604.28;;;14.17;92.95
15750;BME280;7976;52.526;13.326;2022-10-31T06:49:33;101602.53;;;14.17;92.89
15750;BME280;7976;52.526;13.326;2022-10-31T06:52:02;101602.53;;;14.17;92.60
15750;BME280;7976;52.526;13.326;2022-10-31T06:54:29;101612.09;;;14.20;92.82
15750;BME280;7976;52.526;13.326;2022-10-31T06:56:56;101623.53;;;14.19;92.72
15750;BME280;7976;52.526;13.326;2022-10-31T06:59:24;101613.88;;;14.19;93.12
15750;BME280;7976;52.526;13.326;2022-10-31T07:02:12;101622.56;;;14.21;92.72
15750;BME280;7976;52.526;13.326;2022-10-31T07:04:41;101619.81;;;14.24;92.82
15750;BME280;7976;52.526;13.326;2022-10-31T07:07:11;101623.22;;;14.28;92.92
15750;BME280;7976;52.526;13.326;2022-10-31T07:09:38;101622.97;;;14.34;92.60
15750;BME280;7976;52.526;13.326;2022-10-31T07:12:07;101620.97;;;14.40;92.93
15750;BME280;7976;52.526;13.326;2022-10-31T07:14:38;101622.44;;;14.47;92.49
15750;BME280;7976;52.526;13.326;2022-10-31T07:17:06;101622.22;;;14.53;92.56
15750;BME280;7976;52.526;13.326;2022-10-31T07:19:39;101619.28;;;14.61;92.72
15750;BME280;7976;52.526;13.326;2022-10-31T07:22:06;101625.16;;;14.67;92.25
15750;BME280;7976;52.526;13.326;2022-10-31T07:24:34;101622.41;;;14.70;92.59
15750;BME280;7976;52.526;13.326;2022-10-31T07:27:19;101630.88;;;14.78;92.23
15750;BME280;7976;52.526;13.326;2022-10-31T07:29:49;101628.78;;;14.86;92.23
15750;BME280;7976;52.526;13.326;2022-10-31T07:32:16;101637.38;;;14.91;91.96
15750;BME280;7976;52.526;13.326;2022-10-31T07:34:50;101632.03;;;14.93;91.97
15750;BME280;7976;52.526;13.326;2022-10-31T07:37:22;101636.22;;;14.97;92.16
15750;BME280;7976;52.526;13.326;2022-10-31T07:39:50;101639.59;;;15.00;91.83
15750;BME280;7976;52.526;13.326;2022-10-31T07:42:17;101633.44;;;15.01;91.90
15750;BME280;7976;52.526;13.326;2022-10-31T07:44:45;101645.63;;;15.04;92.01
15750;BME280;7976;52.526;13.326;2022-10-31T07:47:38;101637.63;;;15.05;91.95
15750;BME280;7976;52.526;13.326;2022-10-31T07:50:06;101644.66;;;15.06;91.72
15750;BME280;7976;52.526;13.326;2022-10-31T07:52:59;101649.13;;;15.04;91.95
15750;BME280;7976;52.526;13.326;2022-10-31T07:55:49;101656.09;;;15.05;91.60
15750;BME280;7976;52.526;13.326;2022-10-31T07:58:18;101656.16;;;15.04;91.98
15750;BME280;7976;52.526;13.326;2022-10-31T08:00:47;101659.81;;;15.01;91.87
15750;BME280;7976;52.526;13.326;2022-10-31T08:03:19;101661.63;;;14.99;91.83
15750;BME280;7976;52.526;13.326;2022-10-31T08:06:06;101668.66;;;14.99;91.48
15750;BME280;7976;52.526;13.326;2022-10-31T08:08:53;101663.41;;;14.99;91.91
15750;BME280;7976;52.526;13.326;2022-10-31T08:11:19;101662.66;;;14.95;91.68
15750;BME280;7976;52.526;13.326;2022-10-31T08:13:47;101670.47;;;14.98;91.91
15750;BME280;7976;52.526;13.326;2022-10-31T08:16:14;101661.63;;;14.99;91.90
15750;BME280;7976;52.526;13.326;2022-10-31T08:18:54;101666.09;;;14.97;91.82
15750;BME280;7976;52.526;13.326;2022-10-31T08:21:22;101675.84;;;14.95;91.82
15750;BME280;7976;52.526;13.326;2022-10-31T08:23:49;101678.59;;;14.92;92.19
15750;BME280;7976;52.526;13.326;2022-10-31T08:26:18;101673.41;;;14.91;91.90
15750;BME280;7976;52.526;13.326;2022-10-31T08:28:45;101687.31;;;14.94;92.01
15750;BME280;7976;52.526;13.326;2022-10-31T08:31:13;101681.25;;;14.92;92.10
15750;BME280;7976;52.526;13.326;2022-10-31T08:33:40;101678.69;;;14.91;92.03
15750;BME280;7976;52.526;13.326;2022-10-31T08:36:28;101674.28;;;14.91;91.87
15750;BME280;7976;52.526;13.326;2022-10-31T08:39:15;101672.53;;;14.90;91.79
15750;BME280;7976;52.526;13.326;2022-10-31T08:41:41;101662.91;;;14.89;91.97
15750;BME280;7976;52.526;13.326;2022-10-31T08:44:11;101667.31;;;14.89;91.93
15750;BME280;7976;52.526;13.326;2022-10-31T08:46:38;101668.13;;;14.91;92.26
15750;BME280;7976;52.526;13.326;2022-10-31T08:49:05;101665.28;;;14.95;92.14
15750;BME280;7976;52.526;13.326;2022-10-31T08:51:33;101668.75;;;14.97;91.86
15750;BME280;7976;52.526;13.326;2022-10-31T08:54:00;101675.75;;;14.98;91.78
15750;BME280;7976;52.526;13.326;2022-10-31T08:56:56;101680.88;;;15.01;91.61
15750;BME280;7976;52.526;13.326;2022-10-31T08:59:40;101671.19;;;15.02;91.86
15750;BME280;7976;52.526;13.326;2022-10-31T09:02:19;101677.09;;;15.08;91.96
15750;BME280;7976;52.526;13.326;2022-10-31T09:04:49;101676.97;;;15.12;91.77
15750;BME280;7976;52.526;13.326;2022-10-31T09:07:19;101682.09;;;15.15;91.37
15750;BME280;7976;52.526;13.326;2022-10-31T09:09:46;101680.41;;;15.14;91.36
15750;BME280;7976;52.526;13.326;2022-10-31T09:12:12;101680.56;;;15.09;91.53
15750;BME280;7976;52.526;13.326;2022-10-31T09:15:07;101692.78;;;15.12;91.67
15750;BME280;7976;52.526;13.326;2022-10-31T09:17:46;101689.09;;;15.16;91.70
15750;BME280;7976;52.526;13.326;2022-10-31T09:20:21;101681.06;;;15.19;91.57
15750;BME280;7976;52.526;13.326;2022-10-31T09:22:56;101692.38;;;15.21;91.38
15750;BME280;7976;52.526;13.326;2022-10-31T09:25:25;101688.72;;;15.25;91.50
15750;BME280;7976;52.526;13.326;2022-10-31T09:28:14;101697.31;;;15.30;91.98
15750;BME280;7976;52.526;13.326;2022-10-31T09:30:47;101698.03;;;15.33;91.74
15750;BME280;7976;52.526;13.326;2022-10-31T09:33:22;101695.19;;;15.38;91.75
15750;BME280;7976;52.526;13.326;2022-10-31T09:36:07;101695.97;;;15.41;91.40
15750;BME280;7976;52.526;13.326;2022-10-31T09:38:37;101701.09;;;15.44;91.31
15750;BME280;7976;52.526;13.326;2022-10-31T09:41:22;101702.91;;;15.44;91.72
15750;BME280;7976;52.526;13.326;2022-10-31T09:44:03;101708.13;;;15.45;91.35
15750;BME280;7976;52.526;13.326;2022-10-31T09:46:45;101713.25;;;15.48;91.68
15750;BME280;7976;52.526;13.326;2022-10-31T09:49:35;101715.78;;;15.51;91.40
15750;BME280;7976;52.526;13.326;2022-10-31T09:52:16;101713.72;;;15.58;91.79
15750;BME280;7976;52.526;13.326;2022-10-31T09:54:52;101706.09;;;15.72;91.90
15750;BME280;7976;52.526;13.326;2022-10-31T09:57:27;101715.28;;;15.83;91.63
15750;BME280;7976;52.526;13.326;2022-10-31T09:59:57;101706.16;;;15.90;90.93
15750;BME280;7976;52.526;13.326;2022-10-31T10:02:30;101705.03;;;15.96;90.87
15750;BME280;7976;52.526;13.326;2022-10-31T10:05:01;101703.69;;;16.06;90.49
15750;BME280;7976;52.526;13.326;2022-10-31T10:07:49;101701.81;;;16.28;90.76
15750;BME280;7976;52.526;13.326;2022-10-31T10:10:55;101705.09;;;16.53;90.52
15750;BME280;7976;52.526;13.326;2022-10-31T10:14:01;101701.97;;;16.64;89.67
15750;BME280;7976;52.526;13.326;2022-10-31T10:16:48;101701.16;;;16.62;88.76
15750;BME280;7976;52.526;13.326;2022-10-31T10:19:39;101695.22;;;16.57;88.65
15750;BME280;7976;52.526;13.326;2022-10-31T10:22:18;101695.47;;;16.52;88.42
15750;BME280;7976;52.526;13.326;2022-10-31T10:25:02;101697.31;;;16.50;88.96
15750;BME280;7976;52.526;13.326;2022-10-31T10:27:49;101690.31;;;16.49;88.54
15750;BME280;7976;52.526;13.326;2022-10-31T10:30:21;101687.59;;;16.51;88.81
15750;BME280;7976;52.526;13.326;2022-10-31T10:32:52;101685.75;;;16.53;88.62
15750;BME280;7976;52.526;13.326;2022-10-31T10:35:27;101681.31;;;16.53;88.76
15750;BME280;7976;52.526;13.326;2022-10-31T10:38:00;101675.94;;;16.55;88.66
15750;BME280;7976;52.526;13.326;2022-10-31T10:40:29;101682.03;;;16.57;88.25
15750;BME280;7976;52.526;13.326;2022-10-31T10:43:18;101674.81;;;16.60;88.44
15750;BME280;7976;52.526;13.326;2022-10-31T10:45:52;101673.81;;;16.63;88.46
15750;BME280;7976;52.526;13.326;2022-10-31T10:48:43;101675.44;;;16.65;88.10
15750;BME280;7976;52.526;13.326;2022-10-31T10:51:27;101672.66;;;16.68;88.11
15750;BME280;7976;52.526;13.326;2022-10-31T10:54:18;101681.31;;;16.72;88.16
15750;BME280;7976;52.526;13.326;2022-10-31T10:57:00;101669.59;;;16.77;88.26
15750;BME280;7976;52.526;13.326;2022-10-31T10:59:33;101669.44;;;16.80;88.27
15750;BME280;7976;52.526;13.326;2022-10-31T11:02:00;101674.56;;;16.83;88.15
15750;BME280;7976;52.526;13.326;2022-10-31T11:04:33;101676.22;;;16.86;87.77
15750;BME280;7976;52.526;13.326;2022-10-31T11:07:04;101675.22;;;16.88;87.75
15750;BME280;7976;52.526;13.326;2022-10-31T11:09:34;101675.84;;;16.93;87.97
15750;BME280;7976;52.526;13.326;2022-10-31T11:12:09;101672.13;;;16.97;87.54
15750;BME280;7976;52.526;13.326;2022-10-31T11:14:47;101670.13;;;17.02;87.68
15750;BME280;7976;52.526;13.326;2022-10-31T11:17:28;101666.38;;;17.06;87.47
15750;BME280;7976;52.526;13.326;2022-10-31T11:20:30;101667.00;;;17.11;87.32
15750;BME280;7976;52.526;13.326;2022-10-31T11:23:05;101654.41;;;17.16;87.10
15750;BME280;7976;52.526;13.326;2022-10-31T11:25:49;101654.13;;;17.22;87.22
15750;BME280;7976;52.526;13.326;2022-10-31T11:28:17;101648.75;;;17.24;86.75
15750;BME280;7976;52.526;13.326;2022-10-31T11:30:48;101654.91;;;17.24;86.98
15750;BME280;7976;52.526;13.326;2022-10-31T11:33:26;101655.66;;;17.26;87.25
15750;BME280;7976;52.526;13.326;2022-10-31T11:35:56;101647.72;;;17.26;87.21
15750;BME280;7976;52.526;13.326;2022-10-31T11:38:31;101652.09;;;17.27;87.24
15750;BME280;7976;52.526;13.326;2022-10-31T11:41:08;101652.88;;;17.29;87.07
15750;BME280;7976;52.526;13.326;2022-10-31T11:43:36;101645.69;;;17.31;86.67
15750;BME280;7976;52.526;13.326;2022-10-31T11:46:19;101651.78;;;17.33;87.04
15750;BME280;7976;52.526;13.326;2022-10-31T11:48:50;101655.22;;;17.35;86.98
15750;BME280;7976;52.526;13.326;2022-10-31T11:51:25;101649.84;;;17.37;86.51
15750;BME280;7976;52.526;13.326;2022-10-31T11:53:56;101651.50;;;17.39;87.12
15750;BME280;7976;52.526;13.326;2022-10-31T11:56:24;101645.25;;;17.40;87.08
15750;BME280;7976;52.526;13.326;2022-10-31T11:59:01;101645.09;;;17.43;86.55
15750;BME280;7976;52.526;13.326;2022-10-31T12:01:32;101639.72;;;17.45;87.11
15750;BME280;7976;52.526;13.326;2022-10-31T12:04:06;101648.41;;;17.48;87.13
15750;BME280;7976;52.526;13.326;2022-10-31T12:06:37;101646.63;;;17.49;86.96
15750;BME280;7976;52.526;13.326;2022-10-31T12:09:18;101635.94;;;17.50;86.71
15750;BME280;7976;52.526;13.326;2022-10-31T12:12:03;101642.88;;;17.53;87.03
15750;BME280;7976;52.526;13.326;2022-10-31T12:14:42;101636.72;;;17.52;86.80
15750;BME280;7976;52.526;13.326;2022-10-31T12:17:16;101640.16;;;17.55;86.94
15750;BME280;7976;52.526;13.326;2022-10-31T12:19:57;101630.31;;;17.57;86.72
15750;BME280;7976;52.526;13.326;2022-10-31T12:22:40;101633.75;;;17.59;86.26
15750;BME280;7976;52.526;13.326;2022-10-31T12:25:30;101626.59;;;17.61;86.85
15750;BME280;7976;52.526;13.326;2022-10-31T12:28:24;101616.00;;;17.61;86.57
15750;BME280;7976;52.526;13.326;2022-10-31T12:31:13;101618.66;;;17.61;86.53
15750;BME280;7976;52.526;13.326;2022-10-31T12:34:00;101617.69;;;17.62;86.61
15750;BME280;7976;52.526;13.326;2022-10-31T12:36:48;101613.28;;;17.62;86.61
15750;BME280;7976;52.526;13.326;2022-10-31T12:39:30;101616.88;;;17.61;86.84
15750;BME280;7976;52.526;13.326;2022-10-31T12:42:11;101617.56;;;17.65;87.01
15750;BME280;7976;52.526;13.326;2022-10-31T12:45:01;101610.53;;;17.64;86.92
15750;BME280;7976;52.526;13.326;2022-10-31T12:48:00;101609.63;;;17.65;86.95
15750;BME280;7976;52.526;13.326;2022-10-31T12:50:50;101605.06;;;17.67;86.73
15750;BME280;7976;52.526;13.326;2022-10-31T12:53:34;101603.22;;;17.69;86.66
15750;BME280;7976;52.526;13.326;2022-10-31T12:56:20;101601.34;;;17.71;86.49
15750;BME280;7976;52.526;13.326;2022-10-31T12:59:00;101607.41;;;17.73;86.94
15750;BME280;7976;52.526;13.326;2022-10-31T13:01:34;101604.69;;;17.74;86.99
15750;BME280;7976;52.526;13.326;2022-10-31T13:04:10;101606.31;;;17.77;86.55
15750;BME280;7976;52.526;13.326;2022-10-31T13:06:43;101604.34;;;17.80;86.93
15750;BME280;7976;52.526;13.326;2022-10-31T13:09:21;101600.63;;;17.84;86.62
15750;BME280;7976;52.526;13.326;2022-10-31T13:11:58;101592.59;;;17.86;86.52
15750;BME280;7976;52.526;13.326;2022-10-31T13:14:32;101598.66;;;17.88;85.80
15750;BME280;7976;52.526;13.326;2022-10-31T13:17:01;101594.16;;;17.90;86.12
15750;BME280;7976;52.526;13.326;2022-10-31T13:19:35;101601.13;;;17.91;85.79
15750;BME280;7976;52.526;13.326;2022-10-31T13:22:09;101601.06;;;17.92;85.67
15750;BME280;7976;52.526;13.326;2022-10-31T13:24:44;101595.84;;;17.91;86.25
15750;BME280;7976;52.526;13.326;2022-10-31T13:27:21;101596.78;;;17.90;85.92
15750;BME280;7976;52.526;13.326;2022-10-31T13:30:00;101596.00;;;17.88;86.31
15750;BME280;7976;52.526;13.326;2022-10-31T13:32:37;101590.88;;;17.85;86.52
15750;BME280;7976;52.526;13.326;2022-10-31T13:35:15;101602.41;;;17.84;87.21